| time (UTC) | temp F | wind direction | speed knots | gust knots | rain 1hr in | rain 24hr in | rain mn in | humidity % | barometer mb |
| 20260510072714 | 70 | 198 | 0.0 | 0.0 | 0.00 | 0.00 | 0.00 | 94 | 1008.3 |
| 20260510072211 | 70 | 177 | 0.0 | 0.9 | 0.00 | 0.00 | 0.00 | 94 | 1008.3 |
| 20260510071708 | 70 | 194 | 0.9 | 0.9 | 0.00 | 0.00 | 0.00 | 94 | 1008.4 |
| 20260510071205 | 70 | 195 | 0.9 | 0.9 | 0.00 | 0.00 | 0.00 | 94 | 1008.4 |
| 20260510070702 | 70 | 222 | 0.0 | 0.0 | 0.00 | 0.00 | 0.00 | 94 | 1008.5 |
| 20260510070200 | 70 | 202 | 1.7 | 2.6 | 0.00 | 0.00 | 0.00 | 94 | 1008.6 |
| 20260510065655 | 70 | 204 | 0.9 | 1.7 | 0.00 | 0.00 | 0.00 | 94 | 1008.5 |
| 20260510065151 | 70 | 200 | 0.0 | 0.0 | 0.00 | 0.00 | 0.00 | 95 | 1008.6 |
| 20260510064648 | 70 | 227 | 0.0 | 0.0 | 0.00 | 0.00 | 0.00 | 96 | 1008.3 |
| 20260510064145 | 70 | 213 | 1.7 | 1.7 | 0.00 | 0.00 | 0.00 | 96 | 1008.8 |
| 20260510063642 | 69 | 166 | 1.7 | 1.7 | 0.00 | 0.00 | 0.00 | 97 | 1008.7 |
| 20260510063138 | 69 | 189 | 0.0 | 0.0 | 0.00 | 0.00 | 0.00 | 97 | 1008.7 |
| 20260510062634 | 68 | 156 | 0.0 | 0.0 | 0.00 | 0.00 | 0.00 | 97 | 1008.5 |
| 20260510062131 | 68 | 158 | 0.0 | 0.0 | 0.00 | 0.00 | 0.00 | 96 | 1008.9 |
| 20260510061626 | 68 | 158 | 0.0 | 0.0 | 0.00 | 0.00 | 0.00 | 96 | 1008.8 |
| 20260510061124 | 68 | 158 | 0.0 | 0.0 | 0.00 | 0.00 | 0.00 | 95 | 1008.6 |
| 20260510060620 | 68 | 158 | 0.0 | 0.0 | 0.00 | 0.00 | 0.00 | 95 | 1008.7 |
| 20260510060116 | 68 | 158 | 0.0 | 0.0 | 0.00 | 0.00 | 0.00 | 95 | 1008.5 |
| 20260510055612 | 67 | 158 | 0.0 | 0.0 | 0.00 | 0.00 | 0.00 | 95 | 1008.5 |
| 20260510055110 | 67 | 154 | 0.0 | 0.0 | 0.00 | 0.00 | 0.00 | 94 | 1008.4 |
| 20260510054606 | 67 | 154 | 0.0 | 0.0 | 0.00 | 0.00 | 0.00 | 94 | 1008.4 |
| 20260510054101 | 68 | 154 | 0.0 | 0.0 | 0.00 | 0.00 | 0.00 | 94 | 1008.4 |
| 20260510053601 | 68 | 154 | 0.0 | 0.0 | 0.00 | 0.00 | 0.00 | 94 | 1008.3 |
| 20260510053058 | 68 | 154 | 0.0 | 0.0 | 0.00 | 0.00 | 0.00 | 94 | 1008.4 |
| 20260510052554 | 68 | 154 | 0.0 | 0.0 | 0.00 | 0.00 | 0.00 | 93 | 1008.3 |
| 20260510052050 | 68 | 154 | 0.0 | 0.0 | 0.00 | 0.00 | 0.00 | 93 | 1008.2 |
| 20260510051546 | 68 | 154 | 0.0 | 0.0 | 0.00 | 0.00 | 0.00 | 93 | 1008.3 |
| 20260510051043 | 68 | 155 | 0.0 | 0.0 | 0.00 | 0.00 | 0.00 | 93 | 1008.4 |
| 20260510050540 | 68 | 155 | 0.0 | 0.0 | 0.00 | 0.00 | 0.00 | 93 | 1008.3 |
| 20260510050037 | 68 | 155 | 0.0 | 0.0 | 0.00 | 0.00 | 0.00 | 93 | 1008.1 |
| 20260510045534 | 68 | 155 | 0.0 | 0.0 | 0.00 | 0.00 | 0.00 | 93 | 1008.2 |
| 20260510045030 | 68 | 155 | 0.0 | 0.0 | 0.00 | 0.00 | 0.00 | 93 | 1008.4 |
| 20260510044527 | 68 | 154 | 0.0 | 0.0 | 0.00 | 0.00 | 0.00 | 93 | 1008.1 |
| 20260510044025 | 68 | 154 | 0.0 | 0.0 | 0.00 | 0.00 | 0.00 | 92 | 1008.2 |
| 20260510043520 | 68 | 154 | 0.0 | 0.0 | 0.00 | 0.00 | 0.00 | 92 | 1007.9 |
| 20260510043015 | 68 | 154 | 0.0 | 0.0 | 0.00 | 0.00 | 0.00 | 92 | 1007.9 |
| 20260510042510 | 68 | 154 | 0.0 | 0.0 | 0.00 | 0.00 | 0.00 | 92 | 1007.8 |
| 20260510042005 | 68 | 154 | 0.0 | 0.0 | 0.00 | 0.00 | 0.00 | 92 | 1007.9 |
| 20260510041503 | 69 | 154 | 0.0 | 0.0 | 0.00 | 0.00 | 0.00 | 91 | 1007.8 |
| 20260510041000 | 69 | 154 | 0.0 | 0.0 | 0.00 | 0.00 | 0.00 | 91 | 1007.9 |
| 20260510040456 | 69 | 155 | 0.0 | 0.0 | 0.00 | 0.00 | 0.00 | 91 | 1007.8 |
| 20260510035952 | 69 | 155 | 0.0 | 0.0 | 0.00 | 0.00 | 0.00 | 91 | 1008.0 |
| 20260510035449 | 69 | 155 | 0.0 | 0.0 | 0.00 | 0.00 | 0.00 | 91 | 1007.8 |
| 20260510034948 | 69 | 155 | 0.0 | 0.0 | 0.00 | 0.00 | 0.00 | 91 | 1007.8 |
| 20260510034447 | 69 | 155 | 0.0 | 0.0 | 0.00 | 0.00 | 0.00 | 91 | 1007.5 |
| 20260510033943 | 69 | 154 | 0.0 | 0.0 | 0.00 | 0.00 | 0.00 | 90 | 1007.9 |
| 20260510033439 | 69 | 154 | 0.0 | 0.0 | 0.00 | 0.00 | 0.00 | 90 | 1007.8 |
| 20260510032937 | 70 | 154 | 0.0 | 0.0 | 0.00 | 0.00 | 0.00 | 90 | 1007.7 |
| 20260510032433 | 70 | 154 | 0.0 | 0.0 | 0.00 | 0.00 | 0.00 | 89 | 1007.6 |
| 20260510031928 | 70 | 154 | 0.0 | 0.0 | 0.00 | 0.00 | 0.00 | 89 | 1007.6 |
| 20260510031424 | 70 | 154 | 0.0 | 0.0 | 0.00 | 0.00 | 0.00 | 89 | 1007.6 |
| 20260510030919 | 70 | 155 | 0.0 | 0.0 | 0.00 | 0.00 | 0.00 | 89 | 1007.3 |
| 20260510030410 | 70 | 154 | 0.0 | 0.0 | 0.00 | 0.00 | 0.00 | 88 | 1007.4 |
| 20260510025908 | 71 | 154 | 0.0 | 0.0 | 0.00 | 0.00 | 0.00 | 88 | 1007.3 |
| 20260510025405 | 71 | 155 | 0.0 | 0.0 | 0.00 | 0.00 | 0.00 | 88 | 1007.3 |
| 20260510024902 | 71 | 155 | 0.0 | 0.0 | 0.00 | 0.00 | 0.00 | 87 | 1007.2 |
| 20260510024358 | 71 | 154 | 0.0 | 0.0 | 0.00 | 0.00 | 0.00 | 86 | 1007.1 |
| 20260510023854 | 71 | 154 | 0.0 | 0.0 | 0.00 | 0.00 | 0.00 | 86 | 1007.0 |
| 20260510023351 | 71 | 154 | 0.0 | 0.0 | 0.00 | 0.00 | 0.00 | 86 | 1006.7 |
| 20260510022848 | 72 | 154 | 0.0 | 0.0 | 0.00 | 0.00 | 0.00 | 85 | 1006.7 |
| 20260510022347 | 72 | 154 | 0.0 | 0.0 | 0.00 | 0.00 | 0.00 | 85 | 1006.5 |
| 20260510021846 | 72 | 154 | 0.0 | 0.0 | 0.00 | 0.00 | 0.00 | 83 | 1006.6 |
| 20260510021345 | 72 | 154 | 0.0 | 0.0 | 0.00 | 0.00 | 0.00 | 83 | 1006.7 |
| 20260510020841 | 73 | 154 | 0.0 | 0.0 | 0.00 | 0.00 | 0.00 | 82 | 1006.6 |
| 20260510020341 | 73 | 154 | 0.0 | 0.0 | 0.00 | 0.00 | 0.00 | 82 | 1006.5 |
| 20260510015837 | 74 | 154 | 0.0 | 0.0 | 0.00 | 0.00 | 0.00 | 81 | 1006.4 |
| 20260510015333 | 74 | 154 | 0.0 | 0.0 | 0.00 | 0.00 | 0.00 | 81 | 1006.2 |
| 20260510014828 | 75 | 154 | 0.0 | 0.0 | 0.00 | 0.00 | 0.00 | 80 | 1006.0 |
| 20260510014326 | 75 | 154 | 0.0 | 0.0 | 0.00 | 0.00 | 0.00 | 79 | 1006.4 |
| 20260510013821 | 76 | 154 | 0.0 | 0.0 | 0.00 | 0.00 | 0.00 | 77 | 1006.1 |
| 20260510013317 | 76 | 154 | 0.0 | 0.0 | 0.00 | 0.00 | 0.00 | 77 | 1006.0 |
| 20260510012812 | 77 | 154 | 0.0 | 0.0 | 0.00 | 0.00 | 0.00 | 76 | 1006.0 |
| 20260510012312 | 77 | 154 | 0.0 | 0.0 | 0.00 | 0.00 | 0.00 | 75 | 1006.0 |
| 20260510011807 | 78 | 154 | 0.0 | 0.0 | 0.00 | 0.00 | 0.00 | 73 | 1006.0 |
| 20260510011303 | 78 | 154 | 0.0 | 0.0 | 0.00 | 0.00 | 0.00 | 72 | 1005.9 |
| 20260510010800 | 79 | 154 | 0.0 | 0.0 | 0.00 | 0.00 | 0.00 | 73 | 1006.0 |
| 20260510010256 | 79 | 154 | 0.0 | 0.0 | 0.00 | 0.00 | 0.00 | 72 | 1005.9 |
| 20260510005753 | 79 | 121 | 0.9 | 0.9 | 0.00 | 0.00 | 0.00 | 72 | 1005.9 |
| 20260510005249 | 80 | 144 | 1.7 | 1.7 | 0.00 | 0.00 | 0.00 | 72 | 1005.8 |
| 20260510004748 | 80 | 191 | 1.7 | 2.6 | 0.00 | 0.00 | 0.00 | 72 | 1006.0 |
| 20260510004245 | 80 | 137 | 0.9 | 1.7 | 0.00 | 0.00 | 0.00 | 73 | 1006.2 |
| 20260510003742 | 81 | 75 | 0.9 | 0.9 | 0.00 | 0.00 | 0.00 | 73 | 1006.1 |
| 20260510003239 | 82 | 113 | 1.7 | 2.6 | 0.00 | 0.00 | 0.00 | 72 | 1006.2 |
| 20260510002737 | 83 | 109 | 0.0 | 0.0 | 0.00 | 0.00 | 0.00 | 73 | 1006.2 |
| 20260510002235 | 84 | 66 | 0.9 | 0.9 | 0.00 | 0.00 | 0.00 | 74 | 1005.8 |
| 20260510001731 | 84 | 58 | 0.9 | 0.9 | 0.00 | 0.00 | 0.00 | 74 | 1005.7 |
| 20260510001230 | 85 | 125 | 1.7 | 3.5 | 0.00 | 0.00 | 0.00 | 74 | 1005.7 |
| 20260510000726 | 85 | 68 | 2.6 | 5.2 | 0.00 | 0.00 | 0.00 | 74 | 1005.7 |
| 20260510000226 | 85 | 56 | 3.5 | 3.5 | 0.00 | 0.00 | 0.00 | 73 | 1005.8 |
| 20260509235720 | 85 | 83 | 0.0 | 0.0 | 0.00 | 0.00 | 0.00 | 74 | 1005.7 |
| 20260509235216 | 85 | 81 | 0.0 | 0.0 | 0.00 | 0.00 | 0.00 | 73 | 1005.7 |
| 20260509234712 | 84 | 110 | 0.0 | 0.0 | 0.00 | 0.00 | 0.00 | 73 | 1005.7 |
| 20260509234209 | 84 | 78 | 0.9 | 0.9 | 0.00 | 0.00 | 0.00 | 73 | 1005.4 |
| 20260509233708 | 83 | 62 | 0.0 | 0.0 | 0.00 | 0.00 | 0.00 | 74 | 1005.6 |
| 20260509233205 | 84 | 30 | 1.7 | 1.7 | 0.00 | 0.00 | 0.00 | 73 | 1005.3 |
| 20260509232701 | 84 | 45 | 1.7 | 1.7 | 0.00 | 0.00 | 0.00 | 71 | 1005.2 |
| 20260509232157 | 84 | 85 | 0.0 | 0.0 | 0.00 | 0.00 | 0.00 | 71 | 1005.3 |
| 20260509231655 | 84 | 56 | 0.0 | 0.9 | 0.00 | 0.00 | 0.00 | 71 | 1005.2 |
| 20260509231152 | 84 | 57 | 0.0 | 0.9 | 0.00 | 0.00 | 0.00 | 71 | 1005.4 |
| 20260509230649 | 84 | 57 | 0.0 | 0.0 | 0.00 | 0.00 | 0.00 | 70 | 1005.3 |
| 20260509230146 | 85 | 7 | 0.0 | 0.0 | 0.00 | 0.00 | 0.00 | 70 | 1005.2 |
| 20260509225641 | 85 | 9 | 0.0 | 0.0 | 0.00 | 0.00 | 0.00 | 70 | 1005.1 |
| 20260509225137 | 85 | 9 | 0.0 | 0.0 | 0.00 | 0.00 | 0.00 | 68 | 1005.0 |
| 20260509224633 | 86 | 4 | 1.7 | 1.7 | 0.00 | 0.00 | 0.00 | 68 | 1005.0 |
| 20260509224130 | 85 | 3 | 0.0 | 0.9 | 0.00 | 0.00 | 0.00 | 68 | 1005.1 |
| 20260509223627 | 86 | 355 | 2.6 | 3.5 | 0.00 | 0.00 | 0.00 | 66 | 1005.0 |
| 20260509223124 | 87 | 311 | 2.6 | 3.5 | 0.00 | 0.00 | 0.00 | 63 | 1004.8 |
| 20260509222620 | 88 | 62 | 0.0 | 0.0 | 0.00 | 0.00 | 0.00 | 60 | 1004.9 |
| 20260509222116 | 89 | 76 | 0.0 | 0.0 | 0.00 | 0.00 | 0.00 | 60 | 1004.7 |
| 20260509221612 | 89 | 72 | 0.0 | 0.9 | 0.00 | 0.00 | 0.00 | 58 | 1004.8 |
| 20260509221108 | 90 | 90 | 0.9 | 0.9 | 0.00 | 0.00 | 0.00 | 57 | 1005.2 |
| 20260509220604 | 90 | 71 | 0.0 | 0.0 | 0.00 | 0.00 | 0.00 | 55 | 1004.9 |
| 20260509220101 | 91 | 356 | 0.0 | 0.0 | 0.00 | 0.00 | 0.00 | 54 | 1004.7 |
| 20260509215556 | 93 | 226 | 2.6 | 3.5 | 0.00 | 0.00 | 0.00 | 52 | 1004.8 |
| 20260509215054 | 93 | 253 | 0.9 | 1.7 | 0.00 | 0.00 | 0.00 | 52 | 1005.0 |
| 20260509214551 | 93 | 263 | 2.6 | 2.6 | 0.00 | 0.00 | 0.00 | 51 | 1004.7 |
| 20260509214047 | 94 | 228 | 2.6 | 2.6 | 0.00 | 0.00 | 0.00 | 51 | 1004.7 |
| 20260509213543 | 93 | 172 | 0.0 | 0.9 | 0.00 | 0.00 | 0.00 | 54 | 1004.7 |
| 20260509213040 | 92 | 341 | 1.7 | 2.6 | 0.00 | 0.00 | 0.00 | 55 | 1004.8 |
| 20260509212537 | 92 | 14 | 0.9 | 0.9 | 0.00 | 0.00 | 0.00 | 56 | 1004.7 |
| 20260509212034 | 93 | 209 | 2.6 | 3.5 | 0.00 | 0.00 | 0.00 | 55 | 1004.9 |
| 20260509211530 | 92 | 181 | 0.0 | 0.0 | 0.00 | 0.00 | 0.00 | 56 | 1005.0 |
| 20260509211027 | 91 | 121 | 2.6 | 2.6 | 0.00 | 0.00 | 0.00 | 57 | 1005.3 |
| 20260509210524 | 91 | 65 | 1.7 | 1.7 | 0.00 | 0.00 | 0.00 | 57 | 1005.2 |
| 20260509210020 | 91 | 65 | 2.6 | 2.6 | 0.00 | 0.00 | 0.00 | 57 | 1005.4 |
| 20260509205515 | 91 | 131 | 1.7 | 1.7 | 0.00 | 0.00 | 0.00 | 58 | 1005.7 |
| 20260509205010 | 91 | 46 | 1.7 | 2.6 | 0.00 | 0.00 | 0.00 | 57 | 1005.8 |
| 20260509204507 | 93 | 93 | 0.9 | 0.9 | 0.00 | 0.00 | 0.00 | 55 | 1005.8 |
| 20260509204003 | 92 | 41 | 0.9 | 1.7 | 0.00 | 0.00 | 0.00 | 56 | 1005.9 |
| 20260509203459 | 91 | 85 | 0.0 | 0.0 | 0.00 | 0.00 | 0.00 | 55 | 1005.9 |
| 20260509202957 | 91 | 254 | 1.7 | 3.5 | 0.00 | 0.00 | 0.00 | 58 | 1006.0 |
| 20260509202453 | 90 | 352 | 0.9 | 1.7 | 0.00 | 0.00 | 0.00 | 58 | 1006.2 |
| 20260509201948 | 90 | 135 | 0.9 | 1.7 | 0.00 | 0.00 | 0.00 | 62 | 1006.3 |
| 20260509201443 | 91 | 33 | 0.0 | 0.0 | 0.00 | 0.00 | 0.00 | 60 | 1006.1 |
| 20260509200940 | 90 | 131 | 0.0 | 0.0 | 0.00 | 0.00 | 0.00 | 59 | 1006.2 |
| 20260509200440 | 91 | 344 | 5.2 | 8.7 | 0.00 | 0.00 | 0.00 | 60 | 1006.5 |
| 20260509195937 | 89 | 82 | 0.0 | 0.9 | 0.00 | 0.00 | 0.00 | 64 | 1006.2 |
| 20260509195433 | 89 | 235 | 1.7 | 2.6 | 0.00 | 0.00 | 0.00 | 62 | 1006.2 |
| 20260509194932 | 89 | 265 | 2.6 | 2.6 | 0.00 | 0.00 | 0.00 | 61 | 1006.2 |
| 20260509194428 | 90 | 89 | 0.9 | 1.7 | 0.00 | 0.00 | 0.00 | 63 | 1006.2 |
| 20260509193926 | 90 | 224 | 0.9 | 0.9 | 0.00 | 0.00 | 0.00 | 62 | 1006.3 |
| 20260509193425 | 90 | 277 | 1.7 | 2.6 | 0.00 | 0.00 | 0.00 | 63 | 1006.5 |
| 20260509192921 | 88 | 294 | 0.0 | 0.0 | 0.00 | 0.00 | 0.00 | 65 | 1006.6 |
| 20260509192418 | 88 | 259 | 3.5 | 3.5 | 0.00 | 0.00 | 0.00 | 66 | 1006.8 |
| 20260509191913 | 89 | 243 | 2.6 | 2.6 | 0.00 | 0.00 | 0.00 | 66 | 1006.7 |
| 20260509191409 | 88 | 60 | 0.9 | 0.9 | 0.00 | 0.00 | 0.00 | 66 | 1006.7 |
| 20260509190905 | 89 | 28 | 0.0 | 0.9 | 0.00 | 0.00 | 0.00 | 66 | 1007.0 |
| 20260509190402 | 88 | 126 | 0.0 | 0.9 | 0.00 | 0.00 | 0.00 | 67 | 1007.2 |
| 20260509185900 | 88 | 342 | 0.0 | 0.0 | 0.00 | 0.00 | 0.00 | 68 | 1007.1 |
| 20260509185356 | 87 | 80 | 0.9 | 0.9 | 0.00 | 0.00 | 0.00 | 69 | 1007.2 |
| 20260509184853 | 87 | 112 | 0.9 | 0.9 | 0.00 | 0.00 | 0.00 | 69 | 1007.5 |
| 20260509184350 | 88 | 353 | 0.9 | 0.9 | 0.00 | 0.00 | 0.00 | 70 | 1007.4 |
| 20260509183847 | 87 | 253 | 2.6 | 2.6 | 0.00 | 0.00 | 0.00 | 68 | 1007.5 |
| 20260509183342 | 86 | 103 | 0.0 | 0.0 | 0.00 | 0.00 | 0.00 | 73 | 1007.3 |
| 20260509182838 | 85 | 250 | 2.6 | 2.6 | 0.00 | 0.00 | 0.00 | 74 | 1007.7 |
| 20260509182336 | 86 | 282 | 4.3 | 5.2 | 0.00 | 0.00 | 0.00 | 73 | 1007.7 |
| 20260509181833 | 86 | 192 | 3.5 | 3.5 | 0.00 | 0.00 | 0.00 | 72 | 1007.8 |
| 20260509181330 | 85 | 232 | 0.0 | 0.9 | 0.00 | 0.00 | 0.00 | 75 | 1007.7 |
| 20260509180827 | 85 | 81 | 0.9 | 1.7 | 0.00 | 0.00 | 0.00 | 75 | 1007.9 |
| 20260509180323 | 85 | 283 | 2.6 | 2.6 | 0.00 | 0.00 | 0.00 | 76 | 1008.0 |
| 20260509175820 | 86 | 226 | 1.7 | 2.6 | 0.00 | 0.00 | 0.00 | 75 | 1008.0 |
| 20260509175316 | 84 | 324 | 0.9 | 0.9 | 0.00 | 0.00 | 0.00 | 78 | 1008.1 |
| 20260509174812 | 84 | 275 | 0.9 | 1.7 | 0.00 | 0.00 | 0.00 | 77 | 1008.1 |
| 20260509174307 | 84 | 251 | 4.3 | 5.2 | 0.00 | 0.00 | 0.00 | 76 | 1008.0 |
| 20260509173803 | 83 | 10 | 1.7 | 1.7 | 0.00 | 0.00 | 0.00 | 79 | 1008.1 |
| 20260509173254 | 84 | 210 | 3.5 | 5.2 | 0.00 | 0.00 | 0.00 | 78 | 1008.2 |
| 20260509172750 | 82 | 155 | 0.9 | 1.7 | 0.00 | 0.00 | 0.00 | 81 | 1008.4 |
| 20260509172247 | 83 | 216 | 3.5 | 3.5 | 0.00 | 0.00 | 0.00 | 79 | 1008.3 |
| 20260509171742 | 82 | 335 | 1.7 | 2.6 | 0.00 | 0.00 | 0.00 | 81 | 1008.4 |
| 20260509171239 | 82 | 255 | 1.7 | 2.6 | 0.00 | 0.00 | 0.00 | 80 | 1008.5 |
| 20260509170736 | 82 | 279 | 2.6 | 6.1 | 0.00 | 0.00 | 0.00 | 82 | 1008.3 |
| 20260509170232 | 81 | 339 | 2.6 | 2.6 | 0.00 | 0.00 | 0.00 | 84 | 1008.2 |
| 20260509165730 | 80 | 9 | 1.7 | 1.7 | 0.00 | 0.00 | 0.00 | 85 | 1008.4 |
| 20260509165225 | 81 | 344 | 2.6 | 3.5 | 0.00 | 0.00 | 0.00 | 84 | 1008.2 |
| 20260509164722 | 81 | 136 | 0.0 | 0.0 | 0.00 | 0.00 | 0.00 | 82 | 1008.3 |
| 20260509164217 | 82 | 271 | 2.6 | 3.5 | 0.00 | 0.00 | 0.00 | 82 | 1008.3 |
| 20260509163715 | 82 | 270 | 1.7 | 1.7 | 0.00 | 0.00 | 0.00 | 80 | 1008.4 |
| 20260509163212 | 81 | 167 | 1.7 | 2.6 | 0.00 | 0.00 | 0.00 | 82 | 1008.3 |
| 20260509162709 | 80 | 226 | 4.3 | 5.2 | 0.00 | 0.00 | 0.00 | 84 | 1008.2 |
| 20260509162204 | 79 | 254 | 4.3 | 6.1 | 0.00 | 0.00 | 0.00 | 86 | 1008.2 |
| 20260509161700 | 79 | 247 | 1.7 | 1.7 | 0.00 | 0.00 | 0.00 | 88 | 1008.5 |
| 20260509161156 | 79 | 256 | 3.5 | 3.5 | 0.00 | 0.00 | 0.00 | 87 | 1008.4 |
| 20260509160652 | 79 | 240 | 0.9 | 1.7 | 0.00 | 0.00 | 0.00 | 87 | 1008.5 |
| 20260509160148 | 79 | 251 | 0.9 | 0.9 | 0.00 | 0.00 | 0.00 | 87 | 1008.1 |
| 20260509155644 | 79 | 242 | 2.6 | 2.6 | 0.00 | 0.00 | 0.00 | 87 | 1008.2 |
| 20260509155140 | 78 | 211 | 0.0 | 0.0 | 0.00 | 0.00 | 0.00 | 90 | 1008.3 |
| 20260509154636 | 78 | 196 | 1.7 | 1.7 | 0.00 | 0.00 | 0.00 | 90 | 1008.2 |
| 20260509154133 | 78 | 114 | 1.7 | 2.6 | 0.00 | 0.00 | 0.00 | 91 | 1007.8 |
| 20260509153630 | 78 | 237 | 1.7 | 1.7 | 0.00 | 0.00 | 0.00 | 90 | 1008.2 |
| 20260509153127 | 78 | 202 | 1.7 | 1.7 | 0.00 | 0.00 | 0.00 | 90 | 1008.3 |
| 20260509152623 | 78 | 125 | 0.0 | 0.0 | 0.00 | 0.00 | 0.00 | 92 | 1007.9 |
| 20260509152120 | 77 | 89 | 0.0 | 0.0 | 0.00 | 0.00 | 0.00 | 92 | 1008.1 |
| 20260509151616 | 77 | 69 | 0.0 | 0.0 | 0.00 | 0.00 | 0.00 | 94 | 1008.2 |
| 20260509151114 | 76 | 59 | 0.0 | 0.0 | 0.00 | 0.00 | 0.00 | 95 | 1008.2 |
| 20260509150612 | 76 | 54 | 0.0 | 0.0 | 0.00 | 0.00 | 0.00 | 95 | 1008.1 |
| 20260509150110 | 76 | 44 | 0.0 | 0.0 | 0.00 | 0.00 | 0.00 | 96 | 1008.4 |
| 20260509145606 | 76 | 55 | 0.0 | 0.0 | 0.00 | 0.00 | 0.00 | 96 | 1008.5 |
| 20260509145101 | 75 | 72 | 0.0 | 0.0 | 0.00 | 0.00 | 0.00 | 96 | 1008.6 |
| 20260509144558 | 75 | 68 | 0.0 | 0.0 | 0.00 | 0.00 | 0.00 | 96 | 1008.6 |
| 20260509144055 | 75 | 35 | 0.0 | 0.0 | 0.00 | 0.00 | 0.00 | 97 | 1008.9 |
| 20260509143552 | 75 | 57 | 0.0 | 0.0 | 0.00 | 0.00 | 0.00 | 97 | 1008.4 |
| 20260509143050 | 75 | 37 | 0.0 | 0.0 | 0.00 | 0.00 | 0.00 | 97 | 1008.3 |
| 20260509142545 | 75 | 57 | 0.0 | 0.0 | 0.00 | 0.00 | 0.00 | 97 | 1008.4 |
| 20260509142041 | 75 | 50 | 0.0 | 0.0 | 0.00 | 0.00 | 0.00 | 97 | 1008.2 |
| 20260509141537 | 75 | 61 | 0.0 | 0.0 | 0.00 | 0.00 | 0.00 | 98 | 1008.0 |
| 20260509141034 | 74 | 66 | 0.0 | 0.0 | 0.00 | 0.00 | 0.00 | 98 | 1007.9 |
| 20260509140531 | 74 | 76 | 0.0 | 0.0 | 0.00 | 0.00 | 0.00 | 99 | 1007.8 |
| 20260509140029 | 73 | 22 | 0.9 | 1.7 | 0.00 | 0.00 | 0.00 | 99 | 1008.0 |
| 20260509135526 | 73 | 70 | 0.9 | 0.9 | 0.00 | 0.00 | 0.00 | 99 | 1007.9 |
| 20260509135023 | 72 | 0 | 0.0 | 0.0 | 0.00 | 0.00 | 0.00 | 99 | 1007.4 |
| 20260509134520 | 71 | 67 | 0.0 | 0.0 | 0.00 | 0.00 | 0.00 | 99 | 1007.6 |
| 20260509134018 | 71 | 86 | 1.7 | 2.6 | 0.00 | 0.00 | 0.00 | 99 | 1007.6 |
| 20260509133514 | 72 | 55 | 0.9 | 1.7 | 0.00 | 0.00 | 0.00 | 99 | 1008.0 |
| 20260509133013 | 73 | 24 | 0.0 | 1.7 | 0.00 | 0.00 | 0.00 | 99 | 1007.8 |
| 20260509132511 | 73 | 81 | 0.0 | 0.0 | 0.00 | 0.00 | 0.00 | 99 | 1007.7 |
| 20260509132008 | 73 | 60 | 0.0 | 0.0 | 0.00 | 0.00 | 0.00 | 99 | 1007.9 |
| 20260509131504 | 73 | 55 | 0.0 | 0.0 | 0.00 | 0.00 | 0.00 | 99 | 1008.0 |
| 20260509131001 | 73 | 113 | 0.0 | 0.0 | 0.00 | 0.00 | 0.00 | 99 | 1008.1 |
| 20260509130456 | 73 | 94 | 0.0 | 0.0 | 0.00 | 0.00 | 0.00 | 99 | 1007.8 |
| 20260509125954 | 72 | 187 | 1.7 | 2.6 | 0.00 | 0.00 | 0.00 | 99 | 1007.7 |
| 20260509125450 | 72 | 205 | 0.9 | 1.7 | 0.00 | 0.00 | 0.00 | 99 | 1008.0 |
| 20260509124946 | 72 | 182 | 0.0 | 0.0 | 0.00 | 0.00 | 0.00 | 99 | 1007.9 |
| 20260509124443 | 72 | 99 | 0.0 | 0.0 | 0.00 | 0.00 | 0.00 | 99 | 1007.9 |
| 20260509123940 | 72 | 202 | 0.0 | 0.0 | 0.00 | 0.00 | 0.00 | 99 | 1008.3 |
| 20260509123438 | 72 | 149 | 0.0 | 0.0 | 0.00 | 0.00 | 0.00 | 99 | 1008.2 |
| 20260509122934 | 72 | 179 | 0.0 | 0.0 | 0.00 | 0.00 | 0.00 | 99 | 1008.1 |
| 20260509122431 | 72 | 163 | 0.0 | 0.0 | 0.00 | 0.00 | 0.00 | 99 | 1008.0 |
| 20260509121927 | 72 | 109 | 0.0 | 0.0 | 0.00 | 0.00 | 0.00 | 99 | 1008.4 |
| 20260509121424 | 72 | 72 | 0.0 | 0.0 | 0.00 | 0.00 | 0.00 | 99 | 1008.2 |
| 20260509120923 | 72 | 65 | 0.0 | 0.0 | 0.00 | 0.00 | 0.00 | 99 | 1008.5 |
| 20260509120420 | 72 | 62 | 0.0 | 0.0 | 0.00 | 0.00 | 0.00 | 99 | 1008.6 |
| 20260509115918 | 72 | 63 | 0.0 | 0.0 | 0.00 | 0.00 | 0.00 | 99 | 1008.5 |
| 20260509115415 | 72 | 64 | 0.0 | 0.0 | 0.00 | 0.00 | 0.00 | 99 | 1008.5 |
| 20260509114912 | 72 | 64 | 0.0 | 0.0 | 0.00 | 0.00 | 0.00 | 99 | 1008.5 |
| 20260509114411 | 72 | 54 | 0.0 | 0.0 | 0.00 | 0.00 | 0.00 | 99 | 1008.3 |
| 20260509113910 | 72 | 48 | 0.0 | 0.0 | 0.00 | 0.00 | 0.00 | 99 | 1007.9 |
| 20260509113407 | 72 | 61 | 0.0 | 0.0 | 0.00 | 0.00 | 0.00 | 99 | 1008.1 |
| 20260509112903 | 72 | 65 | 0.0 | 0.0 | 0.00 | 0.00 | 0.00 | 99 | 1007.8 |
| 20260509112400 | 72 | 46 | 0.0 | 0.0 | 0.00 | 0.00 | 0.00 | 99 | 1008.2 |
| 20260509111858 | 72 | 57 | 0.0 | 1.7 | 0.00 | 0.00 | 0.00 | 99 | 1008.2 |
| 20260509111354 | 72 | 79 | 0.0 | 0.0 | 0.00 | 0.00 | 0.00 | 99 | 1008.3 |
| 20260509110853 | 72 | 24 | 0.9 | 0.9 | 0.00 | 0.00 | 0.00 | 99 | 1007.9 |
| 20260509110348 | 72 | 46 | 0.0 | 0.9 | 0.00 | 0.00 | 0.00 | 99 | 1007.6 |
| 20260509105847 | 72 | 65 | 0.0 | 0.0 | 0.00 | 0.00 | 0.00 | 99 | 1007.2 |
| 20260509105345 | 72 | 146 | 0.0 | 0.0 | 0.00 | 0.00 | 0.00 | 99 | 1007.1 |
| 20260509104841 | 72 | 81 | 0.0 | 0.0 | 0.00 | 0.00 | 0.00 | 99 | 1007.1 |
| 20260509104337 | 72 | 89 | 0.0 | 0.0 | 0.00 | 0.00 | 0.00 | 99 | 1007.2 |
| 20260509103835 | 72 | 59 | 0.0 | 0.0 | 0.00 | 0.00 | 0.00 | 99 | 1007.5 |
| 20260509103332 | 72 | 72 | 0.0 | 0.0 | 0.00 | 0.00 | 0.00 | 99 | 1007.6 |
| 20260509102831 | 72 | 72 | 0.0 | 0.0 | 0.00 | 0.00 | 0.00 | 99 | 1007.6 |
| 20260509102328 | 72 | 72 | 0.0 | 0.0 | 0.00 | 0.00 | 0.00 | 99 | 1007.9 |
| 20260509101824 | 73 | 76 | 0.0 | 0.0 | 0.00 | 0.00 | 0.00 | 99 | 1007.7 |
| 20260509101320 | 73 | 76 | 0.0 | 0.0 | 0.00 | 0.00 | 0.00 | 99 | 1007.8 |
| 20260509100818 | 73 | 60 | 0.0 | 0.0 | 0.00 | 0.00 | 0.00 | 99 | 1008.0 |
| 20260509100315 | 73 | 85 | 0.0 | 0.0 | 0.00 | 0.00 | 0.00 | 99 | 1007.9 |
| 20260509095812 | 73 | 74 | 0.0 | 0.0 | 0.00 | 0.00 | 0.00 | 99 | 1007.7 |
| 20260509095309 | 73 | 54 | 0.0 | 0.0 | 0.00 | 0.00 | 0.00 | 99 | 1007.6 |
| 20260509094806 | 73 | 35 | 0.0 | 0.0 | 0.00 | 0.00 | 0.00 | 99 | 1007.3 |
| 20260509094302 | 73 | 79 | 0.0 | 0.0 | 0.00 | 0.00 | 0.00 | 99 | 1007.4 |
| 20260509093800 | 73 | 98 | 0.0 | 0.0 | 0.00 | 0.00 | 0.00 | 99 | 1007.5 |
| 20260509093257 | 73 | 64 | 0.0 | 0.0 | 0.00 | 0.00 | 0.00 | 99 | 1007.3 |
| 20260509092756 | 73 | 63 | 0.0 | 0.0 | 0.00 | 0.00 | 0.00 | 99 | 1007.3 |
| 20260509092254 | 73 | 84 | 0.0 | 0.0 | 0.00 | 0.00 | 0.00 | 99 | 1007.5 |
| 20260509091751 | 73 | 68 | 0.0 | 0.0 | 0.00 | 0.00 | 0.00 | 99 | 1007.4 |
| 20260509091248 | 73 | 95 | 0.0 | 0.0 | 0.00 | 0.00 | 0.00 | 99 | 1007.2 |
| 20260509090745 | 73 | 94 | 0.0 | 0.0 | 0.00 | 0.00 | 0.00 | 99 | 1007.2 |
| 20260509090242 | 73 | 85 | 0.0 | 0.0 | 0.00 | 0.00 | 0.00 | 99 | 1007.1 |
| 20260509085740 | 73 | 109 | 0.0 | 0.0 | 0.00 | 0.00 | 0.00 | 99 | 1007.1 |
| 20260509085237 | 73 | 111 | 0.0 | 0.0 | 0.00 | 0.00 | 0.00 | 99 | 1007.4 |
| 20260509084733 | 73 | 48 | 0.0 | 0.0 | 0.00 | 0.00 | 0.00 | 99 | 1007.5 |
| 20260509084230 | 73 | 72 | 0.0 | 0.0 | 0.00 | 0.00 | 0.00 | 99 | 1007.2 |
| 20260509083728 | 73 | 77 | 0.0 | 0.0 | 0.00 | 0.00 | 0.00 | 99 | 1007.1 |
| 20260509083225 | 73 | 77 | 0.0 | 0.0 | 0.00 | 0.00 | 0.00 | 99 | 1007.1 |
| 20260509082721 | 73 | 79 | 0.0 | 0.0 | 0.00 | 0.00 | 0.00 | 99 | 1007.0 |
| 20260509082218 | 73 | 110 | 0.0 | 0.0 | 0.00 | 0.00 | 0.00 | 99 | 1006.9 |
| 20260509081714 | 73 | 176 | 0.0 | 0.9 | 0.00 | 0.00 | 0.00 | 99 | 1007.1 |
| 20260509081212 | 73 | 162 | 0.0 | 0.0 | 0.00 | 0.00 | 0.00 | 99 | 1007.0 |
| 20260509080710 | 73 | 166 | 0.0 | 0.0 | 0.00 | 0.00 | 0.00 | 99 | 1007.1 |
| 20260509080208 | 73 | 203 | 0.9 | 1.7 | 0.00 | 0.00 | 0.00 | 99 | 1007.2 |
| 20260509075706 | 73 | 106 | 0.0 | 0.0 | 0.00 | 0.00 | 0.00 | 99 | 1006.9 |
| 20260509075203 | 73 | 185 | 1.7 | 1.7 | 0.00 | 0.00 | 0.00 | 99 | 1007.1 |
| 20260509074700 | 73 | 201 | 0.0 | 0.0 | 0.00 | 0.00 | 0.00 | 99 | 1007.0 |
| 20260509074156 | 73 | 129 | 0.0 | 0.0 | 0.00 | 0.00 | 0.00 | 99 | 1007.4 |
| 20260509073653 | 73 | 214 | 0.0 | 0.0 | 0.00 | 0.00 | 0.00 | 99 | 1007.2 |
| 20260509073149 | 73 | 194 | 0.0 | 0.0 | 0.00 | 0.00 | 0.00 | 99 | 1007.0 |